createdAt,value
2019-04-28T00:02:12.490Z,65.89
2019-04-28T00:07:16.692Z,66.79
2019-04-28T00:12:21.014Z,67.39
2019-04-28T00:17:26.808Z,67.72
2019-04-28T00:22:44.299Z,68.35
2019-04-28T00:27:48.476Z,68.32
2019-04-28T00:32:52.666Z,68.31
2019-04-28T00:37:56.837Z,69.45
2019-04-28T00:43:01.044Z,69.40
2019-04-28T00:48:05.315Z,69.75
2019-04-28T00:53:09.503Z,71.36
2019-04-28T00:58:13.688Z,72.35
2019-04-28T01:03:17.858Z,72.47
2019-04-28T01:08:22.071Z,72.26
2019-04-28T01:13:26.261Z,72.19
2019-04-28T01:18:40.509Z,73.19
2019-04-28T01:23:44.787Z,74.32
2019-04-28T01:28:49.700Z,74.45
2019-04-28T01:34:20.422Z,74.03
2019-04-28T01:39:25.764Z,73.80
2019-04-28T01:44:29.965Z,74.08
2019-04-28T01:49:34.285Z,74.20
2019-04-28T01:54:40.072Z,74.00
2019-04-28T01:59:44.625Z,72.73
2019-04-28T02:04:49.881Z,73.78
2019-04-28T02:09:54.416Z,74.49
2019-04-28T02:15:00.603Z,75.45
2019-04-28T02:20:05.181Z,75.51
2019-04-28T02:25:10.001Z,76.50
2019-04-28T02:30:14.459Z,76.12
2019-04-28T02:35:21.175Z,75.69
2019-04-28T02:40:24.663Z,74.79
2019-04-28T02:45:31.371Z,74.18
2019-04-28T02:50:50.952Z,73.87
2019-04-28T02:55:54.842Z,74.80
2019-04-28T03:01:11.285Z,74.31
2019-04-28T03:06:05.004Z,74.05
2019-04-28T03:11:10.683Z,73.41
2019-04-28T03:16:15.059Z,73.84
2019-04-28T03:21:21.351Z,73.41
2019-04-28T03:26:37.849Z,73.65
2019-04-28T03:32:25.292Z,73.91
2019-04-28T03:37:12.956Z,73.21
2019-04-28T03:42:17.167Z,74.49
2019-04-28T03:47:21.685Z,75.28
2019-04-28T03:52:25.982Z,75.00
2019-04-28T03:57:31.344Z,74.47
2019-04-28T04:02:35.863Z,74.12
2019-04-28T04:07:42.805Z,74.63
2019-04-28T04:12:53.684Z,75.17
2019-04-28T04:18:03.232Z,75.30
2019-04-28T04:23:07.422Z,76.06
2019-04-28T04:28:11.622Z,77.48
2019-04-28T04:33:15.803Z,77.86
2019-04-28T04:38:21.722Z,77.72
2019-04-28T04:43:26.028Z,78.94
2019-04-28T04:48:31.142Z,79.81
2019-04-28T04:53:35.491Z,80.23
2019-04-28T04:58:40.628Z,81.46
2019-04-28T05:03:46.827Z,81.54
2019-04-28T05:08:51.032Z,82.30
2019-04-28T05:13:55.222Z,82.15
2019-04-28T05:19:00.133Z,83.24
2019-04-28T05:24:30.398Z,83.33
2019-04-28T05:29:34.744Z,82.85
2019-04-28T05:34:41.405Z,81.79
2019-04-28T05:39:44.850Z,82.04
2019-04-28T05:44:49.639Z,82.42
2019-04-28T05:50:11.865Z,82.06
2019-04-28T05:55:20.433Z,81.76
2019-04-28T06:01:00.286Z,81.85
2019-04-28T06:06:04.604Z,80.46
2019-04-28T06:11:26.568Z,81.71
2019-04-28T06:16:30.772Z,81.84
2019-04-28T06:21:35.076Z,82.00
2019-04-28T06:26:39.302Z,82.30
2019-04-28T06:31:43.530Z,81.44
2019-04-28T06:36:47.705Z,81.22
2019-04-28T06:41:51.899Z,80.45
2019-04-28T06:46:56.075Z,80.97
2019-04-28T06:52:00.385Z,81.02
2019-04-28T06:57:04.596Z,80.64
2019-04-28T07:02:08.779Z,80.57
2019-04-28T07:07:12.975Z,80.48
2019-04-28T07:12:17.164Z,79.19
2019-04-28T07:17:21.351Z,79.47
2019-04-28T07:22:27.543Z,79.32
2019-04-28T07:27:31.756Z,78.20
2019-04-28T07:32:35.938Z,78.18
2019-04-28T07:37:40.120Z,77.90
2019-04-28T07:42:44.299Z,77.47
2019-04-28T07:47:48.487Z,77.43
2019-04-28T07:53:05.024Z,76.81
2019-04-28T07:58:09.245Z,76.56
2019-04-28T08:03:13.441Z,76.27
2019-04-28T08:08:17.646Z,76.14
2019-04-28T08:13:21.831Z,76.08
2019-04-28T08:18:26.035Z,77.12
2019-04-28T08:23:30.225Z,77.30
2019-04-28T08:28:34.425Z,76.11
2019-04-28T08:34:02.742Z,73.73
2019-04-28T08:39:06.158Z,72.75
2019-04-28T08:44:10.369Z,72.37
2019-04-28T08:49:14.591Z,71.47
2019-04-28T08:54:18.782Z,71.65
2019-04-28T08:59:22.973Z,74.16
2019-04-28T09:04:27.155Z,74.13
2019-04-28T09:09:31.357Z,73.32
2019-04-28T09:14:35.675Z,70.46
2019-04-28T09:19:42.315Z,68.10
2019-04-28T09:24:45.798Z,67.36
2019-04-28T09:29:49.978Z,66.03
2019-04-28T09:34:54.154Z,66.29
2019-04-28T09:40:09.552Z,64.25
2019-04-28T09:45:18.079Z,63.35
2019-04-28T09:50:22.301Z,62.50
2019-04-28T09:55:26.517Z,61.90
2019-04-28T10:00:30.713Z,62.87
2019-04-28T10:05:34.907Z,62.76
2019-04-28T10:10:39.112Z,63.52
2019-04-28T10:15:43.490Z,64.04
2019-04-28T10:20:47.707Z,63.95
2019-04-28T10:25:51.899Z,63.97
2019-04-28T10:30:56.103Z,62.81
2019-04-28T10:36:00.299Z,63.74
2019-04-28T10:41:09.275Z,63.47
2019-04-28T10:46:13.456Z,62.93
2019-04-28T10:51:17.643Z,61.00
2019-04-28T10:56:21.827Z,60.06
2019-04-28T11:01:26.043Z,59.09
2019-04-28T11:06:30.232Z,58.94
2019-04-28T11:11:34.517Z,56.64
2019-04-28T11:16:39.088Z,55.02
2019-04-28T11:21:43.402Z,51.73
2019-04-28T11:26:47.612Z,53.40
2019-04-28T11:31:51.790Z,56.07
2019-04-28T11:36:56.049Z,58.59
2019-04-28T11:42:00.297Z,60.03
2019-04-28T11:47:06.737Z,58.89
2019-04-28T11:52:11.047Z,56.90
2019-04-28T11:57:15.286Z,59.14
2019-04-28T12:02:19.681Z,57.60
2019-04-28T12:07:24.280Z,56.78
2019-04-28T12:12:38.069Z,58.28
2019-04-28T12:18:04.179Z,59.42
2019-04-28T12:23:09.859Z,58.25
2019-04-28T12:28:14.225Z,57.84
2019-04-28T12:33:18.424Z,56.67
2019-04-28T12:38:22.621Z,56.55
2019-04-28T12:43:27.789Z,54.51
2019-04-28T12:48:32.750Z,54.75
2019-04-28T12:53:37.026Z,54.01
2019-04-28T12:58:41.228Z,55.05
2019-04-28T13:04:11.320Z,55.22
2019-04-28T13:09:15.653Z,55.52
2019-04-28T13:14:19.842Z,54.03
2019-04-28T13:19:24.087Z,55.54
2019-04-28T13:24:28.300Z,56.57
2019-04-28T13:29:33.092Z,56.51
2019-04-28T13:34:39.468Z,55.93
2019-04-28T13:39:59.887Z,55.86
2019-04-28T13:45:11.379Z,54.33
2019-04-28T13:50:23.891Z,54.52
2019-04-28T13:55:53.080Z,55.51
2019-04-28T14:01:22.098Z,54.22
2019-04-28T14:06:28.762Z,48.20
2019-04-28T14:11:33.195Z,46.69
2019-04-28T14:16:37.388Z,47.64
2019-04-28T14:21:41.637Z,50.05
2019-04-28T14:26:45.970Z,52.13
2019-04-28T14:31:50.197Z,53.45
2019-04-28T14:36:54.422Z,54.17
2019-04-28T14:41:58.644Z,54.00
2019-04-28T14:47:02.858Z,50.22
2019-04-28T14:52:07.001Z,47.17
2019-04-28T14:57:11.193Z,48.82
2019-04-28T15:02:37.245Z,51.56
2019-04-28T15:08:00.349Z,52.38
2019-04-28T15:13:05.216Z,50.99
2019-04-28T15:18:09.510Z,50.78
2019-04-28T15:23:13.681Z,49.95
2019-04-28T15:28:17.905Z,49.72
2019-04-28T15:33:22.091Z,49.06
2019-04-28T15:38:26.295Z,48.20
2019-04-28T15:43:30.513Z,46.44
2019-04-28T15:48:34.731Z,46.71
2019-04-28T15:53:38.941Z,47.98
2019-04-28T15:58:43.130Z,48.62
2019-04-28T16:03:47.340Z,49.37
2019-04-28T16:08:51.542Z,49.33
2019-04-28T16:13:55.737Z,47.72
2019-04-28T16:19:00.023Z,48.37
2019-04-28T16:24:04.511Z,48.92
2019-04-28T16:29:08.753Z,48.56
2019-04-28T16:34:12.986Z,48.15
2019-04-28T16:39:17.203Z,48.79
2019-04-28T16:44:28.490Z,47.94
2019-04-28T16:49:32.785Z,49.15
2019-04-28T16:54:36.983Z,49.42
2019-04-28T16:59:58.376Z,49.40
2019-04-28T17:05:02.640Z,49.64
2019-04-28T17:10:07.241Z,49.82
2019-04-28T17:15:12.277Z,49.73
2019-04-28T17:20:16.728Z,50.32
2019-04-28T17:25:21.052Z,50.39
2019-04-28T17:30:25.473Z,51.63
2019-04-28T17:35:29.807Z,52.35
2019-04-28T17:40:34.488Z,52.28
2019-04-28T17:45:38.775Z,52.70
2019-04-28T17:50:45.325Z,52.92
2019-04-28T17:55:49.168Z,54.47
2019-04-28T18:01:24.557Z,55.20
2019-04-28T18:06:29.954Z,55.29
2019-04-28T18:11:34.206Z,55.60
2019-04-28T18:16:56.553Z,56.27
2019-04-28T18:22:00.930Z,56.14
2019-04-28T18:27:05.141Z,56.42
2019-04-28T18:32:27.071Z,57.41
2019-04-28T18:37:50.505Z,58.25
2019-04-28T18:43:01.850Z,58.68
2019-04-28T18:48:06.471Z,58.52
2019-04-28T18:53:12.384Z,58.91
2019-04-28T18:58:16.748Z,59.38
2019-04-28T19:03:21.342Z,59.62
2019-04-28T19:08:49.444Z,60.27
2019-04-28T19:13:54.260Z,60.65
2019-04-28T19:19:01.202Z,61.02
2019-04-28T19:24:13.752Z,61.95
2019-04-28T19:29:18.895Z,61.93
2019-04-28T19:34:25.986Z,62.28
2019-04-28T19:39:31.955Z,62.58
2019-04-28T19:44:37.005Z,62.95
2019-04-28T19:49:41.507Z,63.63
2019-04-28T19:55:23.527Z,63.34
2019-04-28T20:00:37.088Z,63.83
2019-04-28T20:05:42.106Z,64.00
2019-04-28T20:10:46.733Z,63.45
2019-04-28T20:15:51.278Z,64.10
2019-04-28T20:20:55.675Z,64.46
2019-04-28T20:25:59.947Z,64.02
2019-04-28T20:31:04.193Z,64.27
2019-04-28T20:36:14.746Z,64.67
2019-04-28T20:41:22.804Z,65.16
2019-04-28T20:46:27.059Z,65.30
2019-04-28T20:51:31.328Z,65.04
2019-04-28T20:56:35.485Z,64.98
2019-04-28T21:01:39.695Z,65.33
2019-04-28T21:06:44.028Z,65.92
2019-04-28T21:11:48.220Z,65.84
2019-04-28T21:16:52.419Z,66.41
2019-04-28T21:21:56.610Z,66.33
2019-04-28T21:27:00.824Z,65.69
2019-04-28T21:32:05.022Z,65.96
2019-04-28T21:37:09.365Z,66.27
2019-04-28T21:42:17.035Z,66.73
2019-04-28T21:47:24.807Z,66.82
2019-04-28T21:52:29.020Z,66.79
2019-04-28T21:57:33.201Z,67.18
2019-04-28T22:02:37.409Z,67.28
2019-04-28T22:07:41.749Z,67.70
2019-04-28T22:12:45.927Z,67.93
2019-04-28T22:17:50.123Z,68.09
2019-04-28T22:22:54.329Z,68.21
2019-04-28T22:27:58.526Z,69.07
2019-04-28T22:33:02.722Z,69.02
2019-04-28T22:38:06.929Z,69.35
2019-04-28T22:43:11.243Z,69.57
2019-04-28T22:48:17.221Z,69.02
2019-04-28T22:53:25.138Z,68.91
2019-04-28T22:58:39.297Z,68.68
2019-04-28T23:04:14.634Z,69.29
2019-04-28T23:09:20.744Z,68.86
2019-04-28T23:14:27.757Z,70.17
2019-04-28T23:19:54.230Z,69.86
2019-04-28T23:25:15.297Z,69.65
2019-04-28T23:36:49.714Z,69.23
2019-04-28T23:42:14.542Z,70.63
2019-04-28T23:47:18.733Z,70.45
2019-04-28T23:52:50.707Z,71.05
2019-04-28T23:58:32.895Z,71.13
